Search for airport 
image banner adimage banner adimage banner ad
image banner ad

KMYF - Montgomery-Gibbs Executive

Located in San Diego, United States

ICAO - MYF, IATA - MYF

Data provided by Airmate  

General information

Coordinates: N32°48'57" W117°8'22"
Elevation is 427 feet MSL.
Magnetic variation is 14° East
View others Airports in California

Operational data

Special qualification required
Current time UTC:
Current local time:
Weather
METAR: KMYF 211253Z 00000KT 8SM OVC009 17/14 A2995 RMK AO2 SLP139 T01670139
View NOTAMs / SUP AIP / TFR affecting this airport [VIEW]
Communications frequencies: [VIEW]

Runways:

RWY identifierQFULength (ft)Width (ft)SurfaceLDA (ft)
0565°340075OTHER
23245°340075OTHER
10R115°340160ASPH
28L295°340160ASPH
10L115°4598150ASPH
28R295°4598150ASPH

Airport contact information

Address: San Diego United States

Other aviation service providers

Flight schools

National Air College

National Air College

San Diego Flight Training International

San Diego Flight Training International
info@sdfti.com+1(858)569-1822

Corporate Helicopters

Corporate Helicopters

Guaranteed Flight Training

Guaranteed Flight Training

Let's Fly San Diego

Let's Fly San Diego

Coast Flight Training

Coast Flight Training
info@iflycoast.com+1(858)279-4359

Learn To Fly San Diego

Learn To Fly San Diego
christopher@sluka.com+1(858)694-0198

Satellite view of KMYF